sensor_id;sensor_type;location;lat;lon;timestamp;P1;durP1;ratioP1;P2;durP2;ratioP2
5967;SDS011;3010;51.028;4.170;2023-05-29T00:00:07;17.87;;;10.43;;
5967;SDS011;3010;51.028;4.170;2023-05-29T00:02:34;16.87;;;9.23;;
5967;SDS011;3010;51.028;4.170;2023-05-29T00:05:00;12.30;;;8.17;;
5967;SDS011;3010;51.028;4.170;2023-05-29T00:07:30;14.13;;;9.07;;
5967;SDS011;3010;51.028;4.170;2023-05-29T00:09:56;13.33;;;9.00;;
5967;SDS011;3010;51.028;4.170;2023-05-29T00:12:23;13.07;;;8.93;;
5967;SDS011;3010;51.028;4.170;2023-05-29T00:14:49;15.03;;;8.47;;
5967;SDS011;3010;51.028;4.170;2023-05-29T00:17:16;12.10;;;9.00;;
5967;SDS011;3010;51.028;4.170;2023-05-29T00:19:43;14.20;;;8.47;;
5967;SDS011;3010;51.028;4.170;2023-05-29T00:22:09;14.03;;;9.43;;
5967;SDS011;3010;51.028;4.170;2023-05-29T00:24:36;14.03;;;10.10;;
5967;SDS011;3010;51.028;4.170;2023-05-29T00:27:02;11.73;;;8.73;;
5967;SDS011;3010;51.028;4.170;2023-05-29T00:29:29;15.47;;;9.40;;
5967;SDS011;3010;51.028;4.170;2023-05-29T00:31:56;10.27;;;9.17;;
5967;SDS011;3010;51.028;4.170;2023-05-29T00:34:22;15.13;;;8.27;;
5967;SDS011;3010;51.028;4.170;2023-05-29T00:36:49;12.63;;;8.67;;
5967;SDS011;3010;51.028;4.170;2023-05-29T00:39:15;14.57;;;9.23;;
5967;SDS011;3010;51.028;4.170;2023-05-29T00:41:42;15.90;;;9.43;;
5967;SDS011;3010;51.028;4.170;2023-05-29T00:44:08;13.37;;;8.47;;
5967;SDS011;3010;51.028;4.170;2023-05-29T00:46:35;14.30;;;8.40;;
5967;SDS011;3010;51.028;4.170;2023-05-29T00:49:02;10.97;;;9.00;;
5967;SDS011;3010;51.028;4.170;2023-05-29T00:51:28;17.40;;;8.87;;
5967;SDS011;3010;51.028;4.170;2023-05-29T00:53:55;12.70;;;7.97;;
5967;SDS011;3010;51.028;4.170;2023-05-29T00:56:21;11.80;;;8.90;;
5967;SDS011;3010;51.028;4.170;2023-05-29T00:58:49;12.17;;;8.50;;
5967;SDS011;3010;51.028;4.170;2023-05-29T01:01:15;16.90;;;8.93;;
5967;SDS011;3010;51.028;4.170;2023-05-29T01:03:41;12.17;;;7.77;;
5967;SDS011;3010;51.028;4.170;2023-05-29T01:06:08;16.40;;;8.43;;
5967;SDS011;3010;51.028;4.170;2023-05-29T01:08:34;14.67;;;8.63;;
5967;SDS011;3010;51.028;4.170;2023-05-29T01:11:05;10.13;;;8.33;;
5967;SDS011;3010;51.028;4.170;2023-05-29T01:13:30;15.32;;;9.23;;
5967;SDS011;3010;51.028;4.170;2023-05-29T01:21:21;13.87;;;8.37;;
5967;SDS011;3010;51.028;4.170;2023-05-29T01:23:56;13.23;;;8.63;;
5967;SDS011;3010;51.028;4.170;2023-05-29T01:29:14;11.43;;;7.60;;
5967;SDS011;3010;51.028;4.170;2023-05-29T01:31:39;11.17;;;7.47;;
5967;SDS011;3010;51.028;4.170;2023-05-29T01:34:06;15.10;;;8.97;;
5967;SDS011;3010;51.028;4.170;2023-05-29T01:36:33;13.23;;;8.17;;
5967;SDS011;3010;51.028;4.170;2023-05-29T01:38:59;18.40;;;7.90;;
5967;SDS011;3010;51.028;4.170;2023-05-29T01:41:26;14.13;;;7.40;;
5967;SDS011;3010;51.028;4.170;2023-05-29T01:43:53;13.50;;;6.87;;
5967;SDS011;3010;51.028;4.170;2023-05-29T01:46:19;13.63;;;6.57;;
5967;SDS011;3010;51.028;4.170;2023-05-29T01:48:46;13.47;;;7.03;;
5967;SDS011;3010;51.028;4.170;2023-05-29T01:51:12;12.23;;;6.90;;
5967;SDS011;3010;51.028;4.170;2023-05-29T01:53:39;19.90;;;6.40;;
5967;SDS011;3010;51.028;4.170;2023-05-29T01:56:05;11.80;;;6.53;;
5967;SDS011;3010;51.028;4.170;2023-05-29T01:58:32;11.50;;;6.63;;
5967;SDS011;3010;51.028;4.170;2023-05-29T02:00:59;10.60;;;5.63;;
5967;SDS011;3010;51.028;4.170;2023-05-29T02:03:25;11.60;;;5.30;;
5967;SDS011;3010;51.028;4.170;2023-05-29T02:05:52;13.43;;;5.93;;
5967;SDS011;3010;51.028;4.170;2023-05-29T02:08:18;15.63;;;5.90;;
5967;SDS011;3010;51.028;4.170;2023-05-29T02:10:45;13.63;;;5.40;;
5967;SDS011;3010;51.028;4.170;2023-05-29T02:13:12;15.70;;;6.07;;
5967;SDS011;3010;51.028;4.170;2023-05-29T02:15:38;12.23;;;5.20;;
5967;SDS011;3010;51.028;4.170;2023-05-29T02:18:05;11.97;;;5.70;;
5967;SDS011;3010;51.028;4.170;2023-05-29T02:20:31;7.43;;;4.57;;
5967;SDS011;3010;51.028;4.170;2023-05-29T02:22:58;8.77;;;3.90;;
5967;SDS011;3010;51.028;4.170;2023-05-29T02:25:24;8.13;;;4.33;;
5967;SDS011;3010;51.028;4.170;2023-05-29T02:27:51;12.03;;;4.87;;
5967;SDS011;3010;51.028;4.170;2023-05-29T02:30:18;11.20;;;4.23;;
5967;SDS011;3010;51.028;4.170;2023-05-29T02:32:44;12.67;;;4.20;;
5967;SDS011;3010;51.028;4.170;2023-05-29T02:35:11;8.70;;;4.00;;
5967;SDS011;3010;51.028;4.170;2023-05-29T02:37:37;13.43;;;4.13;;
5967;SDS011;3010;51.028;4.170;2023-05-29T02:40:04;12.67;;;5.30;;
5967;SDS011;3010;51.028;4.170;2023-05-29T02:42:31;9.30;;;4.10;;
5967;SDS011;3010;51.028;4.170;2023-05-29T02:44:57;9.57;;;5.07;;
5967;SDS011;3010;51.028;4.170;2023-05-29T02:47:24;7.80;;;3.77;;
5967;SDS011;3010;51.028;4.170;2023-05-29T02:49:50;9.93;;;4.20;;
5967;SDS011;3010;51.028;4.170;2023-05-29T02:52:17;7.00;;;3.87;;
5967;SDS011;3010;51.028;4.170;2023-05-29T02:54:44;11.60;;;4.07;;
5967;SDS011;3010;51.028;4.170;2023-05-29T02:57:10;12.13;;;4.97;;
5967;SDS011;3010;51.028;4.170;2023-05-29T02:59:37;13.47;;;4.77;;
5967;SDS011;3010;51.028;4.170;2023-05-29T03:02:03;11.60;;;4.30;;
5967;SDS011;3010;51.028;4.170;2023-05-29T03:04:30;11.07;;;4.73;;
5967;SDS011;3010;51.028;4.170;2023-05-29T03:06:57;11.57;;;3.93;;
5967;SDS011;3010;51.028;4.170;2023-05-29T03:09:23;12.13;;;4.18;;
5967;SDS011;3010;51.028;4.170;2023-05-29T03:11:50;8.30;;;3.93;;
5967;SDS011;3010;51.028;4.170;2023-05-29T03:14:16;10.27;;;3.53;;
5967;SDS011;3010;51.028;4.170;2023-05-29T03:16:43;12.20;;;4.23;;
5967;SDS011;3010;51.028;4.170;2023-05-29T03:19:09;9.20;;;3.73;;
5967;SDS011;3010;51.028;4.170;2023-05-29T03:21:36;10.53;;;4.40;;
5967;SDS011;3010;51.028;4.170;2023-05-29T03:24:03;8.27;;;3.67;;
5967;SDS011;3010;51.028;4.170;2023-05-29T03:26:29;8.97;;;3.63;;
5967;SDS011;3010;51.028;4.170;2023-05-29T03:28:56;8.17;;;3.57;;
5967;SDS011;3010;51.028;4.170;2023-05-29T03:31:22;9.23;;;3.47;;
5967;SDS011;3010;51.028;4.170;2023-05-29T03:33:49;11.47;;;3.60;;
5967;SDS011;3010;51.028;4.170;2023-05-29T03:36:16;10.97;;;3.80;;
5967;SDS011;3010;51.028;4.170;2023-05-29T03:38:45;14.17;;;3.87;;
5967;SDS011;3010;51.028;4.170;2023-05-29T03:41:12;10.27;;;4.30;;
5967;SDS011;3010;51.028;4.170;2023-05-29T03:43:38;11.40;;;4.00;;
5967;SDS011;3010;51.028;4.170;2023-05-29T03:46:05;11.37;;;3.67;;
5967;SDS011;3010;51.028;4.170;2023-05-29T03:48:31;10.80;;;4.33;;
5967;SDS011;3010;51.028;4.170;2023-05-29T03:50:58;11.68;;;4.30;;
5967;SDS011;3010;51.028;4.170;2023-05-29T03:53:25;8.03;;;3.87;;
5967;SDS011;3010;51.028;4.170;2023-05-29T03:55:51;10.63;;;3.97;;
5967;SDS011;3010;51.028;4.170;2023-05-29T03:58:18;8.80;;;3.60;;
5967;SDS011;3010;51.028;4.170;2023-05-29T04:00:44;13.13;;;3.83;;
5967;SDS011;3010;51.028;4.170;2023-05-29T04:03:11;9.93;;;4.20;;
5967;SDS011;3010;51.028;4.170;2023-05-29T04:05:38;11.30;;;3.50;;
5967;SDS011;3010;51.028;4.170;2023-05-29T04:08:04;12.23;;;3.97;;
5967;SDS011;3010;51.028;4.170;2023-05-29T04:10:31;12.30;;;4.43;;
5967;SDS011;3010;51.028;4.170;2023-05-29T04:13:00;10.10;;;3.60;;
5967;SDS011;3010;51.028;4.170;2023-05-29T04:15:27;11.07;;;4.00;;
5967;SDS011;3010;51.028;4.170;2023-05-29T04:17:54;10.60;;;4.13;;
5967;SDS011;3010;51.028;4.170;2023-05-29T04:20:20;10.23;;;3.80;;
5967;SDS011;3010;51.028;4.170;2023-05-29T04:22:47;10.53;;;4.43;;
5967;SDS011;3010;51.028;4.170;2023-05-29T04:25:13;12.77;;;3.83;;
5967;SDS011;3010;51.028;4.170;2023-05-29T04:27:40;16.47;;;4.00;;
5967;SDS011;3010;51.028;4.170;2023-05-29T04:30:07;11.57;;;4.83;;
5967;SDS011;3010;51.028;4.170;2023-05-29T04:32:33;14.60;;;5.43;;
5967;SDS011;3010;51.028;4.170;2023-05-29T04:35:00;15.10;;;4.57;;
5967;SDS011;3010;51.028;4.170;2023-05-29T04:37:26;10.00;;;3.77;;
5967;SDS011;3010;51.028;4.170;2023-05-29T04:39:53;13.33;;;3.60;;
5967;SDS011;3010;51.028;4.170;2023-05-29T04:42:19;13.67;;;4.57;;
5967;SDS011;3010;51.028;4.170;2023-05-29T04:44:46;10.00;;;3.80;;
5967;SDS011;3010;51.028;4.170;2023-05-29T04:47:13;15.10;;;4.00;;
5967;SDS011;3010;51.028;4.170;2023-05-29T04:49:39;16.47;;;4.23;;
5967;SDS011;3010;51.028;4.170;2023-05-29T04:52:06;14.37;;;3.87;;
5967;SDS011;3010;51.028;4.170;2023-05-29T04:54:32;14.53;;;3.70;;
5967;SDS011;3010;51.028;4.170;2023-05-29T04:56:59;11.10;;;3.90;;
5967;SDS011;3010;51.028;4.170;2023-05-29T04:59:26;13.33;;;3.80;;
5967;SDS011;3010;51.028;4.170;2023-05-29T05:01:52;11.30;;;3.50;;
5967;SDS011;3010;51.028;4.170;2023-05-29T05:04:19;12.70;;;4.77;;
5967;SDS011;3010;51.028;4.170;2023-05-29T05:06:45;13.87;;;4.47;;
5967;SDS011;3010;51.028;4.170;2023-05-29T05:09:12;14.00;;;4.43;;
5967;SDS011;3010;51.028;4.170;2023-05-29T05:11:39;12.10;;;4.10;;
5967;SDS011;3010;51.028;4.170;2023-05-29T05:14:05;11.00;;;3.77;;
5967;SDS011;3010;51.028;4.170;2023-05-29T05:16:32;9.43;;;3.70;;
5967;SDS011;3010;51.028;4.170;2023-05-29T05:18:58;11.87;;;3.40;;
5967;SDS011;3010;51.028;4.170;2023-05-29T05:21:25;10.70;;;3.77;;
5967;SDS011;3010;51.028;4.170;2023-05-29T05:23:52;11.57;;;4.40;;
5967;SDS011;3010;51.028;4.170;2023-05-29T05:26:18;11.80;;;4.03;;
5967;SDS011;3010;51.028;4.170;2023-05-29T05:28:45;10.17;;;4.03;;
5967;SDS011;3010;51.028;4.170;2023-05-29T05:31:11;10.47;;;3.30;;
5967;SDS011;3010;51.028;4.170;2023-05-29T05:33:38;12.13;;;3.90;;
5967;SDS011;3010;51.028;4.170;2023-05-29T05:36:04;13.47;;;3.70;;
5967;SDS011;3010;51.028;4.170;2023-05-29T05:38:31;12.50;;;4.00;;
5967;SDS011;3010;51.028;4.170;2023-05-29T05:40:58;13.18;;;3.97;;
5967;SDS011;3010;51.028;4.170;2023-05-29T05:43:24;12.27;;;4.50;;
5967;SDS011;3010;51.028;4.170;2023-05-29T05:45:51;12.73;;;3.83;;
5967;SDS011;3010;51.028;4.170;2023-05-29T05:48:17;13.07;;;4.00;;
5967;SDS011;3010;51.028;4.170;2023-05-29T05:50:44;9.17;;;3.80;;
5967;SDS011;3010;51.028;4.170;2023-05-29T05:53:11;10.23;;;3.93;;
5967;SDS011;3010;51.028;4.170;2023-05-29T05:55:37;15.33;;;4.30;;
5967;SDS011;3010;51.028;4.170;2023-05-29T05:58:04;12.27;;;4.37;;
5967;SDS011;3010;51.028;4.170;2023-05-29T06:00:30;8.97;;;4.00;;
5967;SDS011;3010;51.028;4.170;2023-05-29T06:02:57;12.10;;;3.87;;
5967;SDS011;3010;51.028;4.170;2023-05-29T06:05:24;13.33;;;3.80;;
5967;SDS011;3010;51.028;4.170;2023-05-29T06:07:50;8.13;;;3.37;;
5967;SDS011;3010;51.028;4.170;2023-05-29T06:10:17;11.63;;;4.03;;
5967;SDS011;3010;51.028;4.170;2023-05-29T06:12:43;10.60;;;3.63;;
5967;SDS011;3010;51.028;4.170;2023-05-29T06:15:10;7.20;;;3.27;;
5967;SDS011;3010;51.028;4.170;2023-05-29T06:17:36;11.83;;;3.30;;
5967;SDS011;3010;51.028;4.170;2023-05-29T06:20:03;9.47;;;4.23;;
5967;SDS011;3010;51.028;4.170;2023-05-29T06:22:36;8.57;;;3.30;;
5967;SDS011;3010;51.028;4.170;2023-05-29T06:25:02;12.30;;;3.10;;
5967;SDS011;3010;51.028;4.170;2023-05-29T06:27:29;10.03;;;3.27;;
5967;SDS011;3010;51.028;4.170;2023-05-29T06:29:56;10.60;;;3.00;;
5967;SDS011;3010;51.028;4.170;2023-05-29T06:32:22;9.23;;;3.37;;
5967;SDS011;3010;51.028;4.170;2023-05-29T06:34:49;7.93;;;3.20;;
5967;SDS011;3010;51.028;4.170;2023-05-29T06:37:15;11.97;;;3.10;;
5967;SDS011;3010;51.028;4.170;2023-05-29T06:39:45;10.73;;;3.40;;
5967;SDS011;3010;51.028;4.170;2023-05-29T06:42:11;9.80;;;3.17;;
5967;SDS011;3010;51.028;4.170;2023-05-29T06:44:38;8.63;;;3.27;;
5967;SDS011;3010;51.028;4.170;2023-05-29T06:47:05;11.37;;;3.43;;
5967;SDS011;3010;51.028;4.170;2023-05-29T06:49:31;7.50;;;2.97;;
5967;SDS011;3010;51.028;4.170;2023-05-29T06:51:58;7.90;;;2.93;;
5967;SDS011;3010;51.028;4.170;2023-05-29T06:54:24;7.50;;;2.87;;
5967;SDS011;3010;51.028;4.170;2023-05-29T06:56:51;11.53;;;3.47;;
5967;SDS011;3010;51.028;4.170;2023-05-29T06:59:17;6.57;;;3.00;;
5967;SDS011;3010;51.028;4.170;2023-05-29T07:01:44;7.73;;;3.20;;
5967;SDS011;3010;51.028;4.170;2023-05-29T07:04:11;10.57;;;3.40;;
5967;SDS011;3010;51.028;4.170;2023-05-29T07:06:37;6.33;;;2.93;;
5967;SDS011;3010;51.028;4.170;2023-05-29T07:09:04;10.93;;;3.23;;
5967;SDS011;3010;51.028;4.170;2023-05-29T07:11:30;9.67;;;2.93;;
5967;SDS011;3010;51.028;4.170;2023-05-29T07:13:57;10.97;;;3.90;;
5967;SDS011;3010;51.028;4.170;2023-05-29T07:16:24;8.60;;;3.00;;
5967;SDS011;3010;51.028;4.170;2023-05-29T07:18:50;10.67;;;3.50;;
5967;SDS011;3010;51.028;4.170;2023-05-29T07:21:17;10.37;;;2.87;;
5967;SDS011;3010;51.028;4.170;2023-05-29T07:23:43;12.43;;;4.07;;
5967;SDS011;3010;51.028;4.170;2023-05-29T07:26:10;11.02;;;3.47;;
5967;SDS011;3010;51.028;4.170;2023-05-29T07:28:36;9.10;;;3.17;;
5967;SDS011;3010;51.028;4.170;2023-05-29T07:31:03;13.03;;;3.33;;
5967;SDS011;3010;51.028;4.170;2023-05-29T07:33:30;11.83;;;3.50;;
5967;SDS011;3010;51.028;4.170;2023-05-29T07:35:56;11.60;;;3.33;;
5967;SDS011;3010;51.028;4.170;2023-05-29T07:38:23;10.40;;;3.10;;
5967;SDS011;3010;51.028;4.170;2023-05-29T07:40:49;6.87;;;2.80;;
5967;SDS011;3010;51.028;4.170;2023-05-29T07:43:16;8.73;;;3.00;;
5967;SDS011;3010;51.028;4.170;2023-05-29T07:45:43;6.40;;;3.00;;
5967;SDS011;3010;51.028;4.170;2023-05-29T07:48:09;13.13;;;3.10;;
5967;SDS011;3010;51.028;4.170;2023-05-29T07:50:36;8.97;;;3.00;;
5967;SDS011;3010;51.028;4.170;2023-05-29T07:53:02;10.67;;;2.90;;
5967;SDS011;3010;51.028;4.170;2023-05-29T07:55:29;6.50;;;3.00;;
5967;SDS011;3010;51.028;4.170;2023-05-29T07:57:56;8.67;;;2.83;;
5967;SDS011;3010;51.028;4.170;2023-05-29T08:00:22;9.03;;;2.90;;
5967;SDS011;3010;51.028;4.170;2023-05-29T08:02:49;12.67;;;4.03;;
5967;SDS011;3010;51.028;4.170;2023-05-29T08:05:15;9.80;;;3.43;;
5967;SDS011;3010;51.028;4.170;2023-05-29T08:07:42;5.30;;;2.70;;
5967;SDS011;3010;51.028;4.170;2023-05-29T08:10:08;8.40;;;3.17;;
5967;SDS011;3010;51.028;4.170;2023-05-29T08:12:35;9.47;;;3.33;;
5967;SDS011;3010;51.028;4.170;2023-05-29T08:15:02;9.07;;;3.73;;
5967;SDS011;3010;51.028;4.170;2023-05-29T08:17:28;5.63;;;3.17;;
5967;SDS011;3010;51.028;4.170;2023-05-29T08:19:55;15.40;;;3.57;;
5967;SDS011;3010;51.028;4.170;2023-05-29T08:22:27;5.83;;;3.07;;
5967;SDS011;3010;51.028;4.170;2023-05-29T08:24:48;10.70;;;3.20;;
5967;SDS011;3010;51.028;4.170;2023-05-29T08:27:15;11.73;;;3.23;;
5967;SDS011;3010;51.028;4.170;2023-05-29T08:29:41;8.33;;;2.90;;
5967;SDS011;3010;51.028;4.170;2023-05-29T08:32:08;12.60;;;3.17;;
5967;SDS011;3010;51.028;4.170;2023-05-29T08:34:34;7.60;;;3.10;;
5967;SDS011;3010;51.028;4.170;2023-05-29T08:37:01;12.40;;;3.20;;
5967;SDS011;3010;51.028;4.170;2023-05-29T08:39:28;9.27;;;3.07;;
5967;SDS011;3010;51.028;4.170;2023-05-29T08:42:11;9.37;;;3.10;;
5967;SDS011;3010;51.028;4.170;2023-05-29T08:44:36;8.93;;;3.87;;
5967;SDS011;3010;51.028;4.170;2023-05-29T08:47:03;11.13;;;3.23;;
5967;SDS011;3010;51.028;4.170;2023-05-29T08:49:31;7.47;;;2.50;;
5967;SDS011;3010;51.028;4.170;2023-05-29T08:52:00;14.63;;;3.43;;
5967;SDS011;3010;51.028;4.170;2023-05-29T08:54:30;5.95;;;2.92;;
5967;SDS011;3010;51.028;4.170;2023-05-29T08:56:55;8.80;;;3.23;;
5967;SDS011;3010;51.028;4.170;2023-05-29T08:59:21;7.07;;;2.80;;
5967;SDS011;3010;51.028;4.170;2023-05-29T09:01:48;6.90;;;3.27;;
5967;SDS011;3010;51.028;4.170;2023-05-29T09:04:15;8.80;;;2.83;;
5967;SDS011;3010;51.028;4.170;2023-05-29T09:06:41;7.80;;;3.30;;
5967;SDS011;3010;51.028;4.170;2023-05-29T09:09:08;7.40;;;3.00;;
5967;SDS011;3010;51.028;4.170;2023-05-29T09:11:34;7.70;;;2.70;;
5967;SDS011;3010;51.028;4.170;2023-05-29T09:14:01;5.97;;;2.80;;
5967;SDS011;3010;51.028;4.170;2023-05-29T09:16:28;10.40;;;3.30;;
5967;SDS011;3010;51.028;4.170;2023-05-29T09:19:06;6.63;;;3.27;;
5967;SDS011;3010;51.028;4.170;2023-05-29T09:21:33;10.57;;;3.27;;
5967;SDS011;3010;51.028;4.170;2023-05-29T09:24:03;8.90;;;3.07;;
5967;SDS011;3010;51.028;4.170;2023-05-29T09:26:29;7.33;;;2.90;;
5967;SDS011;3010;51.028;4.170;2023-05-29T09:28:56;8.97;;;3.43;;
5967;SDS011;3010;51.028;4.170;2023-05-29T09:31:22;8.43;;;2.70;;
5967;SDS011;3010;51.028;4.170;2023-05-29T09:33:49;8.40;;;3.17;;
5967;SDS011;3010;51.028;4.170;2023-05-29T09:36:21;8.03;;;2.80;;
5967;SDS011;3010;51.028;4.170;2023-05-29T09:38:48;9.33;;;3.33;;
5967;SDS011;3010;51.028;4.170;2023-05-29T09:41:20;9.38;;;3.12;;
5967;SDS011;3010;51.028;4.170;2023-05-29T09:43:46;8.00;;;2.83;;
5967;SDS011;3010;51.028;4.170;2023-05-29T09:46:14;7.83;;;3.10;;
5967;SDS011;3010;51.028;4.170;2023-05-29T09:48:40;11.30;;;3.47;;
5967;SDS011;3010;51.028;4.170;2023-05-29T09:51:06;10.40;;;2.80;;
5967;SDS011;3010;51.028;4.170;2023-05-29T09:53:33;9.47;;;3.00;;
5967;SDS011;3010;51.028;4.170;2023-05-29T09:55:59;9.37;;;2.90;;
5967;SDS011;3010;51.028;4.170;2023-05-29T09:58:26;8.07;;;3.10;;
5967;SDS011;3010;51.028;4.170;2023-05-29T10:00:53;8.70;;;3.10;;
5967;SDS011;3010;51.028;4.170;2023-05-29T10:03:19;8.40;;;3.10;;
5967;SDS011;3010;51.028;4.170;2023-05-29T10:05:47;6.55;;;2.90;;
5967;SDS011;3010;51.028;4.170;2023-05-29T10:08:15;9.65;;;3.22;;
5967;SDS011;3010;51.028;4.170;2023-05-29T10:10:43;8.70;;;2.43;;
5967;SDS011;3010;51.028;4.170;2023-05-29T10:13:10;7.57;;;2.70;;
5967;SDS011;3010;51.028;4.170;2023-05-29T10:15:37;7.47;;;2.85;;
5967;SDS011;3010;51.028;4.170;2023-05-29T10:18:05;9.57;;;3.07;;
5967;SDS011;3010;51.028;4.170;2023-05-29T10:20:33;8.87;;;3.43;;
5967;SDS011;3010;51.028;4.170;2023-05-29T10:23:00;6.90;;;2.70;;
5967;SDS011;3010;51.028;4.170;2023-05-29T10:25:27;7.97;;;3.10;;
5967;SDS011;3010;51.028;4.170;2023-05-29T10:27:53;6.50;;;2.50;;
5967;SDS011;3010;51.028;4.170;2023-05-29T10:33:07;7.43;;;2.40;;
5967;SDS011;3010;51.028;4.170;2023-05-29T10:35:53;7.67;;;2.83;;
5967;SDS011;3010;51.028;4.170;2023-05-29T10:38:26;7.03;;;2.87;;
5967;SDS011;3010;51.028;4.170;2023-05-29T10:40:53;6.80;;;2.57;;
5967;SDS011;3010;51.028;4.170;2023-05-29T10:43:32;3.63;;;2.50;;
5967;SDS011;3010;51.028;4.170;2023-05-29T10:45:59;6.15;;;2.62;;
5967;SDS011;3010;51.028;4.170;2023-05-29T10:50:51;9.30;;;2.67;;
5967;SDS011;3010;51.028;4.170;2023-05-29T10:53:22;7.10;;;2.63;;
5967;SDS011;3010;51.028;4.170;2023-05-29T10:55:51;6.53;;;2.60;;
5967;SDS011;3010;51.028;4.170;2023-05-29T10:58:21;9.27;;;3.08;;
5967;SDS011;3010;51.028;4.170;2023-05-29T11:00:49;8.38;;;3.17;;
5967;SDS011;3010;51.028;4.170;2023-05-29T11:03:25;6.23;;;2.30;;
5967;SDS011;3010;51.028;4.170;2023-05-29T11:06:01;7.07;;;2.77;;
5967;SDS011;3010;51.028;4.170;2023-05-29T11:08:41;11.83;;;2.90;;
5967;SDS011;3010;51.028;4.170;2023-05-29T11:11:08;7.43;;;2.97;;
5967;SDS011;3010;51.028;4.170;2023-05-29T11:13:35;7.67;;;3.17;;
5967;SDS011;3010;51.028;4.170;2023-05-29T11:18:49;8.40;;;2.70;;
5967;SDS011;3010;51.028;4.170;2023-05-29T11:24:13;5.17;;;2.60;;
5967;SDS011;3010;51.028;4.170;2023-05-29T11:26:37;6.37;;;2.73;;
5967;SDS011;3010;51.028;4.170;2023-05-29T11:29:03;6.50;;;2.33;;
5967;SDS011;3010;51.028;4.170;2023-05-29T11:31:31;4.87;;;2.53;;
5967;SDS011;3010;51.028;4.170;2023-05-29T11:33:58;5.80;;;3.00;;
5967;SDS011;3010;51.028;4.170;2023-05-29T11:36:23;7.57;;;3.10;;
5967;SDS011;3010;51.028;4.170;2023-05-29T11:38:51;9.00;;;2.10;;
5967;SDS011;3010;51.028;4.170;2023-05-29T11:41:16;5.10;;;2.10;;
5967;SDS011;3010;51.028;4.170;2023-05-29T11:43:42;9.75;;;2.95;;
5967;SDS011;3010;51.028;4.170;2023-05-29T11:46:18;5.80;;;2.67;;
5967;SDS011;3010;51.028;4.170;2023-05-29T11:48:46;7.60;;;3.00;;
5967;SDS011;3010;51.028;4.170;2023-05-29T11:51:13;10.30;;;2.90;;
5967;SDS011;3010;51.028;4.170;2023-05-29T11:53:42;4.90;;;2.43;;
5967;SDS011;3010;51.028;4.170;2023-05-29T11:56:11;10.77;;;3.10;;
5967;SDS011;3010;51.028;4.170;2023-05-29T11:58:38;10.00;;;2.70;;
5967;SDS011;3010;51.028;4.170;2023-05-29T12:01:07;5.13;;;2.87;;
5967;SDS011;3010;51.028;4.170;2023-05-29T12:03:37;5.60;;;2.90;;
5967;SDS011;3010;51.028;4.170;2023-05-29T12:06:03;7.83;;;2.73;;
5967;SDS011;3010;51.028;4.170;2023-05-29T12:08:30;9.48;;;3.20;;
5967;SDS011;3010;51.028;4.170;2023-05-29T12:10:56;4.97;;;2.73;;
5967;SDS011;3010;51.028;4.170;2023-05-29T12:13:23;7.00;;;2.80;;
5967;SDS011;3010;51.028;4.170;2023-05-29T12:15:52;5.87;;;2.87;;
5967;SDS011;3010;51.028;4.170;2023-05-29T12:18:16;5.27;;;3.03;;
5967;SDS011;3010;51.028;4.170;2023-05-29T12:20:43;10.33;;;3.37;;
5967;SDS011;3010;51.028;4.170;2023-05-29T12:23:09;7.50;;;3.07;;
5967;SDS011;3010;51.028;4.170;2023-05-29T12:25:36;7.97;;;3.00;;
5967;SDS011;3010;51.028;4.170;2023-05-29T12:28:03;5.33;;;2.67;;
5967;SDS011;3010;51.028;4.170;2023-05-29T12:30:29;7.80;;;2.47;;
5967;SDS011;3010;51.028;4.170;2023-05-29T12:32:56;8.87;;;3.03;;
5967;SDS011;3010;51.028;4.170;2023-05-29T12:35:26;7.90;;;3.23;;
5967;SDS011;3010;51.028;4.170;2023-05-29T12:37:55;9.33;;;3.87;;
5967;SDS011;3010;51.028;4.170;2023-05-29T12:40:24;9.00;;;3.23;;
5967;SDS011;3010;51.028;4.170;2023-05-29T12:42:57;8.23;;;3.13;;
5967;SDS011;3010;51.028;4.170;2023-05-29T12:45:24;6.60;;;3.07;;
5967;SDS011;3010;51.028;4.170;2023-05-29T12:48:10;8.00;;;2.87;;
5967;SDS011;3010;51.028;4.170;2023-05-29T12:50:28;6.90;;;3.13;;
5967;SDS011;3010;51.028;4.170;2023-05-29T12:55:23;6.43;;;2.90;;
5967;SDS011;3010;51.028;4.170;2023-05-29T12:57:49;5.70;;;2.97;;
5967;SDS011;3010;51.028;4.170;2023-05-29T13:00:16;9.23;;;3.30;;
5967;SDS011;3010;51.028;4.170;2023-05-29T13:02:43;10.23;;;2.70;;
5967;SDS011;3010;51.028;4.170;2023-05-29T13:05:09;5.67;;;3.20;;
5967;SDS011;3010;51.028;4.170;2023-05-29T13:07:36;9.02;;;3.58;;
5967;SDS011;3010;51.028;4.170;2023-05-29T13:10:02;6.40;;;3.00;;
5967;SDS011;3010;51.028;4.170;2023-05-29T13:12:29;8.83;;;3.00;;
5967;SDS011;3010;51.028;4.170;2023-05-29T13:14:55;9.00;;;2.87;;
5967;SDS011;3010;51.028;4.170;2023-05-29T13:17:22;9.03;;;3.43;;
5967;SDS011;3010;51.028;4.170;2023-05-29T13:19:49;5.62;;;2.90;;
5967;SDS011;3010;51.028;4.170;2023-05-29T13:22:15;4.93;;;2.97;;
5967;SDS011;3010;51.028;4.170;2023-05-29T13:24:42;7.70;;;3.30;;
5967;SDS011;3010;51.028;4.170;2023-05-29T13:27:08;8.35;;;3.05;;
5967;SDS011;3010;51.028;4.170;2023-05-29T13:29:35;7.73;;;3.27;;
5967;SDS011;3010;51.028;4.170;2023-05-29T13:32:02;9.23;;;2.90;;
5967;SDS011;3010;51.028;4.170;2023-05-29T13:34:28;7.00;;;2.70;;
5967;SDS011;3010;51.028;4.170;2023-05-29T13:36:55;7.20;;;2.97;;
5967;SDS011;3010;51.028;4.170;2023-05-29T13:39:21;6.13;;;2.80;;
5967;SDS011;3010;51.028;4.170;2023-05-29T13:41:48;4.87;;;2.85;;
5967;SDS011;3010;51.028;4.170;2023-05-29T13:44:14;12.73;;;3.33;;
5967;SDS011;3010;51.028;4.170;2023-05-29T13:46:41;6.63;;;2.80;;
5967;SDS011;3010;51.028;4.170;2023-05-29T13:49:08;7.17;;;3.33;;
5967;SDS011;3010;51.028;4.170;2023-05-29T13:51:34;4.90;;;2.40;;
5967;SDS011;3010;51.028;4.170;2023-05-29T13:54:01;7.60;;;3.00;;
5967;SDS011;3010;51.028;4.170;2023-05-29T13:56:27;6.97;;;3.13;;
5967;SDS011;3010;51.028;4.170;2023-05-29T13:58:54;6.40;;;2.57;;
5967;SDS011;3010;51.028;4.170;2023-05-29T14:01:21;5.30;;;2.83;;
5967;SDS011;3010;51.028;4.170;2023-05-29T14:03:47;4.17;;;2.53;;
5967;SDS011;3010;51.028;4.170;2023-05-29T14:06:14;5.33;;;2.70;;
5967;SDS011;3010;51.028;4.170;2023-05-29T14:08:40;8.17;;;3.27;;
5967;SDS011;3010;51.028;4.170;2023-05-29T14:11:07;5.87;;;3.00;;
5967;SDS011;3010;51.028;4.170;2023-05-29T14:13:33;5.17;;;2.80;;
5967;SDS011;3010;51.028;4.170;2023-05-29T14:16:00;3.83;;;2.60;;
5967;SDS011;3010;51.028;4.170;2023-05-29T14:18:26;9.07;;;3.20;;
5967;SDS011;3010;51.028;4.170;2023-05-29T14:20:53;7.73;;;2.87;;
5967;SDS011;3010;51.028;4.170;2023-05-29T14:23:20;7.63;;;3.10;;
5967;SDS011;3010;51.028;4.170;2023-05-29T14:25:46;7.20;;;3.33;;
5967;SDS011;3010;51.028;4.170;2023-05-29T14:28:13;7.80;;;3.28;;
5967;SDS011;3010;51.028;4.170;2023-05-29T14:30:39;6.55;;;3.00;;
5967;SDS011;3010;51.028;4.170;2023-05-29T14:33:06;5.43;;;2.87;;
5967;SDS011;3010;51.028;4.170;2023-05-29T14:35:33;7.22;;;3.12;;
5967;SDS011;3010;51.028;4.170;2023-05-29T14:37:59;5.47;;;2.47;;
5967;SDS011;3010;51.028;4.170;2023-05-29T14:40:26;6.87;;;2.60;;
5967;SDS011;3010;51.028;4.170;2023-05-29T14:42:52;5.40;;;2.70;;
5967;SDS011;3010;51.028;4.170;2023-05-29T14:45:19;6.37;;;2.60;;
5967;SDS011;3010;51.028;4.170;2023-05-29T14:47:45;5.90;;;2.62;;
5967;SDS011;3010;51.028;4.170;2023-05-29T14:50:12;6.00;;;3.03;;
5967;SDS011;3010;51.028;4.170;2023-05-29T14:52:39;5.37;;;2.47;;
5967;SDS011;3010;51.028;4.170;2023-05-29T14:55:05;3.27;;;2.50;;
5967;SDS011;3010;51.028;4.170;2023-05-29T14:57:32;6.90;;;2.60;;
5967;SDS011;3010;51.028;4.170;2023-05-29T14:59:58;6.35;;;2.95;;
5967;SDS011;3010;51.028;4.170;2023-05-29T15:02:25;5.03;;;2.57;;
5967;SDS011;3010;51.028;4.170;2023-05-29T15:04:51;7.43;;;2.93;;
5967;SDS011;3010;51.028;4.170;2023-05-29T15:07:18;6.60;;;2.30;;
5967;SDS011;3010;51.028;4.170;2023-05-29T15:09:45;3.03;;;2.43;;
5967;SDS011;3010;51.028;4.170;2023-05-29T15:12:11;4.03;;;2.03;;
5967;SDS011;3010;51.028;4.170;2023-05-29T15:14:38;6.63;;;2.67;;
5967;SDS011;3010;51.028;4.170;2023-05-29T15:17:04;5.43;;;2.30;;
5967;SDS011;3010;51.028;4.170;2023-05-29T15:19:31;7.10;;;2.43;;
5967;SDS011;3010;51.028;4.170;2023-05-29T15:21:58;5.83;;;3.20;;
5967;SDS011;3010;51.028;4.170;2023-05-29T15:24:24;4.47;;;2.30;;
5967;SDS011;3010;51.028;4.170;2023-05-29T15:26:51;5.57;;;2.70;;
5967;SDS011;3010;51.028;4.170;2023-05-29T15:29:17;4.07;;;2.33;;